sensor_id;sensor_type;location;lat;lon;timestamp;temperature;humidity
19039;DHT22;9652;49.014;12.052;2023-10-31T00:01:54;15.80;81.70
19039;DHT22;9652;49.014;12.052;2023-10-31T00:04:22;15.80;81.70
19039;DHT22;9652;49.014;12.052;2023-10-31T00:06:49;15.80;81.90
19039;DHT22;9652;49.014;12.052;2023-10-31T00:09:16;15.80;81.90
19039;DHT22;9652;49.014;12.052;2023-10-31T00:11:43;15.80;82.00
19039;DHT22;9652;49.014;12.052;2023-10-31T00:14:11;15.80;82.00
19039;DHT22;9652;49.014;12.052;2023-10-31T00:16:38;15.80;82.10
19039;DHT22;9652;49.014;12.052;2023-10-31T00:19:05;15.70;82.10
19039;DHT22;9652;49.014;12.052;2023-10-31T00:21:34;15.80;82.30
19039;DHT22;9652;49.014;12.052;2023-10-31T00:24:01;15.80;82.50
19039;DHT22;9652;49.014;12.052;2023-10-31T00:26:28;15.80;82.60
19039;DHT22;9652;49.014;12.052;2023-10-31T00:28:55;15.80;82.70
19039;DHT22;9652;49.014;12.052;2023-10-31T00:31:22;15.70;82.60
19039;DHT22;9652;49.014;12.052;2023-10-31T00:33:50;15.70;82.70
19039;DHT22;9652;49.014;12.052;2023-10-31T00:36:17;15.70;82.90
19039;DHT22;9652;49.014;12.052;2023-10-31T00:38:45;15.80;83.00
19039;DHT22;9652;49.014;12.052;2023-10-31T00:41:12;15.80;83.10
19039;DHT22;9652;49.014;12.052;2023-10-31T00:43:40;15.70;83.10
19039;DHT22;9652;49.014;12.052;2023-10-31T00:46:07;15.70;83.30
19039;DHT22;9652;49.014;12.052;2023-10-31T00:48:34;15.70;83.30
19039;DHT22;9652;49.014;12.052;2023-10-31T00:51:03;15.70;83.40
19039;DHT22;9652;49.014;12.052;2023-10-31T00:53:31;15.70;83.40
19039;DHT22;9652;49.014;12.052;2023-10-31T00:56:02;15.70;83.50
19039;DHT22;9652;49.014;12.052;2023-10-31T00:58:30;15.70;83.60
19039;DHT22;9652;49.014;12.052;2023-10-31T01:00:57;15.70;83.70
19039;DHT22;9652;49.014;12.052;2023-10-31T01:03:25;15.60;83.60
19039;DHT22;9652;49.014;12.052;2023-10-31T01:05:52;15.70;83.80
19039;DHT22;9652;49.014;12.052;2023-10-31T01:08:19;15.70;83.90
19039;DHT22;9652;49.014;12.052;2023-10-31T01:10:46;15.70;83.90
19039;DHT22;9652;49.014;12.052;2023-10-31T01:13:15;15.60;84.00
19039;DHT22;9652;49.014;12.052;2023-10-31T01:15:42;15.60;84.10
19039;DHT22;9652;49.014;12.052;2023-10-31T01:18:09;15.60;84.10
19039;DHT22;9652;49.014;12.052;2023-10-31T01:20:37;15.60;84.10
19039;DHT22;9652;49.014;12.052;2023-10-31T01:23:04;15.60;84.30
19039;DHT22;9652;49.014;12.052;2023-10-31T01:25:31;15.60;84.30
19039;DHT22;9652;49.014;12.052;2023-10-31T01:27:59;15.60;84.30
19039;DHT22;9652;49.014;12.052;2023-10-31T01:30:27;15.70;84.40
19039;DHT22;9652;49.014;12.052;2023-10-31T01:32:54;15.60;84.40
19039;DHT22;9652;49.014;12.052;2023-10-31T01:35:21;15.60;84.40
19039;DHT22;9652;49.014;12.052;2023-10-31T01:37:48;15.60;84.40
19039;DHT22;9652;49.014;12.052;2023-10-31T01:40:15;15.60;84.40
19039;DHT22;9652;49.014;12.052;2023-10-31T01:42:42;15.60;84.50
19039;DHT22;9652;49.014;12.052;2023-10-31T01:45:10;15.50;84.40
19039;DHT22;9652;49.014;12.052;2023-10-31T01:47:39;15.50;84.50
19039;DHT22;9652;49.014;12.052;2023-10-31T01:50:07;15.60;84.80
19039;DHT22;9652;49.014;12.052;2023-10-31T01:52:36;15.50;84.60
19039;DHT22;9652;49.014;12.052;2023-10-31T01:55:04;15.50;84.60
19039;DHT22;9652;49.014;12.052;2023-10-31T01:57:32;15.50;84.70
19039;DHT22;9652;49.014;12.052;2023-10-31T02:00:00;15.60;84.70
19039;DHT22;9652;49.014;12.052;2023-10-31T02:02:40;15.60;84.80
19039;DHT22;9652;49.014;12.052;2023-10-31T02:05:08;15.50;84.80
19039;DHT22;9652;49.014;12.052;2023-10-31T02:07:36;15.50;84.80
19039;DHT22;9652;49.014;12.052;2023-10-31T02:10:03;15.50;85.00
19039;DHT22;9652;49.014;12.052;2023-10-31T02:12:32;15.50;85.10
19039;DHT22;9652;49.014;12.052;2023-10-31T02:14:59;15.50;85.10
19039;DHT22;9652;49.014;12.052;2023-10-31T02:17:26;15.50;85.10
19039;DHT22;9652;49.014;12.052;2023-10-31T02:19:55;15.50;85.00
19039;DHT22;9652;49.014;12.052;2023-10-31T02:22:24;15.50;85.10
19039;DHT22;9652;49.014;12.052;2023-10-31T02:24:51;15.50;85.10
19039;DHT22;9652;49.014;12.052;2023-10-31T02:27:18;15.50;85.20
19039;DHT22;9652;49.014;12.052;2023-10-31T02:29:45;15.50;85.20
19039;DHT22;9652;49.014;12.052;2023-10-31T02:32:12;15.50;85.30
19039;DHT22;9652;49.014;12.052;2023-10-31T02:34:40;15.50;85.30
19039;DHT22;9652;49.014;12.052;2023-10-31T02:37:07;15.50;85.40
19039;DHT22;9652;49.014;12.052;2023-10-31T02:39:36;15.40;85.10
19039;DHT22;9652;49.014;12.052;2023-10-31T02:42:04;15.50;85.30
19039;DHT22;9652;49.014;12.052;2023-10-31T02:44:32;15.40;85.20
19039;DHT22;9652;49.014;12.052;2023-10-31T02:46:59;15.40;85.10
19039;DHT22;9652;49.014;12.052;2023-10-31T02:49:26;15.40;85.10
19039;DHT22;9652;49.014;12.052;2023-10-31T02:51:53;15.40;85.30
19039;DHT22;9652;49.014;12.052;2023-10-31T02:54:20;15.40;85.30
19039;DHT22;9652;49.014;12.052;2023-10-31T02:56:48;15.40;85.30
19039;DHT22;9652;49.014;12.052;2023-10-31T02:59:16;15.30;85.30
19039;DHT22;9652;49.014;12.052;2023-10-31T03:01:43;15.30;85.20
19039;DHT22;9652;49.014;12.052;2023-10-31T03:04:10;15.30;86.00
19039;DHT22;9652;49.014;12.052;2023-10-31T03:06:38;15.30;85.40
19039;DHT22;9652;49.014;12.052;2023-10-31T03:09:06;15.30;85.50
19039;DHT22;9652;49.014;12.052;2023-10-31T03:11:33;15.30;85.60
19039;DHT22;9652;49.014;12.052;2023-10-31T03:14:02;15.30;85.60
19039;DHT22;9652;49.014;12.052;2023-10-31T03:16:29;15.30;85.60
19039;DHT22;9652;49.014;12.052;2023-10-31T03:18:56;15.30;85.60
19039;DHT22;9652;49.014;12.052;2023-10-31T03:21:23;15.20;85.50
19039;DHT22;9652;49.014;12.052;2023-10-31T03:23:51;15.30;85.50
19039;DHT22;9652;49.014;12.052;2023-10-31T03:26:21;15.20;85.40
19039;DHT22;9652;49.014;12.052;2023-10-31T03:28:49;15.20;85.30
19039;DHT22;9652;49.014;12.052;2023-10-31T03:31:18;15.20;85.20
19039;DHT22;9652;49.014;12.052;2023-10-31T03:33:45;15.20;85.20
19039;DHT22;9652;49.014;12.052;2023-10-31T03:36:12;15.20;85.20
19039;DHT22;9652;49.014;12.052;2023-10-31T03:38:39;15.10;85.20
19039;DHT22;9652;49.014;12.052;2023-10-31T03:41:07;15.10;85.10
19039;DHT22;9652;49.014;12.052;2023-10-31T03:43:34;15.00;85.00
19039;DHT22;9652;49.014;12.052;2023-10-31T03:46:01;15.00;85.30
19039;DHT22;9652;49.014;12.052;2023-10-31T03:48:30;15.00;85.40
19039;DHT22;9652;49.014;12.052;2023-10-31T03:50:57;15.00;85.50
19039;DHT22;9652;49.014;12.052;2023-10-31T03:53:24;15.00;85.40
19039;DHT22;9652;49.014;12.052;2023-10-31T03:55:51;15.10;85.50
19039;DHT22;9652;49.014;12.052;2023-10-31T03:58:19;14.90;85.50
19039;DHT22;9652;49.014;12.052;2023-10-31T04:00:46;14.90;85.50
19039;DHT22;9652;49.014;12.052;2023-10-31T04:03:13;14.90;85.50
19039;DHT22;9652;49.014;12.052;2023-10-31T04:05:42;14.90;85.50
19039;DHT22;9652;49.014;12.052;2023-10-31T04:08:09;14.90;85.40
19039;DHT22;9652;49.014;12.052;2023-10-31T04:10:37;14.90;85.40
19039;DHT22;9652;49.014;12.052;2023-10-31T04:13:04;14.80;85.30
19039;DHT22;9652;49.014;12.052;2023-10-31T04:15:31;14.80;85.20
19039;DHT22;9652;49.014;12.052;2023-10-31T04:18:00;14.80;85.90
19039;DHT22;9652;49.014;12.052;2023-10-31T04:20:27;14.70;84.80
19039;DHT22;9652;49.014;12.052;2023-10-31T04:22:55;14.70;84.70
19039;DHT22;9652;49.014;12.052;2023-10-31T04:25:22;14.70;84.70
19039;DHT22;9652;49.014;12.052;2023-10-31T04:27:50;14.60;84.50
19039;DHT22;9652;49.014;12.052;2023-10-31T04:30:17;14.50;84.50
19039;DHT22;9652;49.014;12.052;2023-10-31T04:32:44;14.50;84.70
19039;DHT22;9652;49.014;12.052;2023-10-31T04:35:11;14.50;84.80
19039;DHT22;9652;49.014;12.052;2023-10-31T04:37:38;14.40;84.80
19039;DHT22;9652;49.014;12.052;2023-10-31T04:40:07;14.40;84.80
19039;DHT22;9652;49.014;12.052;2023-10-31T04:42:37;14.40;85.00
19039;DHT22;9652;49.014;12.052;2023-10-31T04:45:06;14.30;85.00
19039;DHT22;9652;49.014;12.052;2023-10-31T04:47:34;14.30;85.10
19039;DHT22;9652;49.014;12.052;2023-10-31T04:50:01;14.30;85.10
19039;DHT22;9652;49.014;12.052;2023-10-31T04:52:28;14.30;85.10
19039;DHT22;9652;49.014;12.052;2023-10-31T04:54:55;14.30;85.10
19039;DHT22;9652;49.014;12.052;2023-10-31T04:57:24;14.20;85.00
19039;DHT22;9652;49.014;12.052;2023-10-31T04:59:51;14.20;85.30
19039;DHT22;9652;49.014;12.052;2023-10-31T05:02:21;14.30;85.10
19039;DHT22;9652;49.014;12.052;2023-10-31T05:04:48;14.10;85.00
19039;DHT22;9652;49.014;12.052;2023-10-31T05:07:16;14.20;85.10
19039;DHT22;9652;49.014;12.052;2023-10-31T05:09:43;14.10;85.10
19039;DHT22;9652;49.014;12.052;2023-10-31T05:12:10;14.10;86.00
19039;DHT22;9652;49.014;12.052;2023-10-31T05:14:40;14.10;85.10
19039;DHT22;9652;49.014;12.052;2023-10-31T05:17:07;14.10;85.20
19039;DHT22;9652;49.014;12.052;2023-10-31T05:19:34;14.20;85.20
19039;DHT22;9652;49.014;12.052;2023-10-31T05:22:01;14.10;85.10
19039;DHT22;9652;49.014;12.052;2023-10-31T05:24:28;14.10;85.10
19039;DHT22;9652;49.014;12.052;2023-10-31T05:26:57;14.10;85.00
19039;DHT22;9652;49.014;12.052;2023-10-31T05:29:24;14.10;85.80
19039;DHT22;9652;49.014;12.052;2023-10-31T05:31:53;14.10;85.00
19039;DHT22;9652;49.014;12.052;2023-10-31T05:34:20;14.10;85.10
19039;DHT22;9652;49.014;12.052;2023-10-31T05:36:48;14.10;85.00
19039;DHT22;9652;49.014;12.052;2023-10-31T05:39:15;14.10;85.00
19039;DHT22;9652;49.014;12.052;2023-10-31T05:41:42;14.10;84.80
19039;DHT22;9652;49.014;12.052;2023-10-31T05:44:09;14.10;84.80
19039;DHT22;9652;49.014;12.052;2023-10-31T05:46:38;14.00;84.80
19039;DHT22;9652;49.014;12.052;2023-10-31T05:49:08;14.00;85.00
19039;DHT22;9652;49.014;12.052;2023-10-31T05:51:35;14.00;84.90
19039;DHT22;9652;49.014;12.052;2023-10-31T05:54:03;14.00;84.80
19039;DHT22;9652;49.014;12.052;2023-10-31T05:56:30;14.00;84.80
19039;DHT22;9652;49.014;12.052;2023-10-31T05:58:57;14.00;84.80
19039;DHT22;9652;49.014;12.052;2023-10-31T06:01:24;14.00;84.80
19039;DHT22;9652;49.014;12.052;2023-10-31T06:03:51;14.00;84.60
19039;DHT22;9652;49.014;12.052;2023-10-31T06:06:19;14.00;84.60
19039;DHT22;9652;49.014;12.052;2023-10-31T06:08:46;14.00;84.60
19039;DHT22;9652;49.014;12.052;2023-10-31T06:11:13;14.00;84.60
19039;DHT22;9652;49.014;12.052;2023-10-31T06:13:41;14.00;84.60
19039;DHT22;9652;49.014;12.052;2023-10-31T06:16:08;14.00;84.60
19039;DHT22;9652;49.014;12.052;2023-10-31T06:18:37;14.00;84.60
19039;DHT22;9652;49.014;12.052;2023-10-31T06:21:06;13.90;84.40
19039;DHT22;9652;49.014;12.052;2023-10-31T06:23:36;13.90;84.40
19039;DHT22;9652;49.014;12.052;2023-10-31T06:26:03;14.00;84.40
19039;DHT22;9652;49.014;12.052;2023-10-31T06:28:31;13.90;84.20
19039;DHT22;9652;49.014;12.052;2023-10-31T06:31:00;13.90;84.30
19039;DHT22;9652;49.014;12.052;2023-10-31T06:33:27;13.90;84.30
19039;DHT22;9652;49.014;12.052;2023-10-31T06:35:55;13.90;84.10
19039;DHT22;9652;49.014;12.052;2023-10-31T06:38:22;13.90;84.10
19039;DHT22;9652;49.014;12.052;2023-10-31T06:40:51;13.90;84.10
19039;DHT22;9652;49.014;12.052;2023-10-31T06:43:18;13.90;84.00
19039;DHT22;9652;49.014;12.052;2023-10-31T06:45:45;13.90;84.10
19039;DHT22;9652;49.014;12.052;2023-10-31T06:48:13;13.90;84.10
19039;DHT22;9652;49.014;12.052;2023-10-31T06:50:40;13.90;84.10
19039;DHT22;9652;49.014;12.052;2023-10-31T06:53:07;13.90;84.20
19039;DHT22;9652;49.014;12.052;2023-10-31T06:55:34;13.90;84.30
19039;DHT22;9652;49.014;12.052;2023-10-31T06:58:02;13.90;84.40
19039;DHT22;9652;49.014;12.052;2023-10-31T07:00:30;14.00;84.50
19039;DHT22;9652;49.014;12.052;2023-10-31T07:02:57;13.90;84.60
19039;DHT22;9652;49.014;12.052;2023-10-31T07:05:25;14.00;84.70
19039;DHT22;9652;49.014;12.052;2023-10-31T07:07:52;14.00;84.50
19039;DHT22;9652;49.014;12.052;2023-10-31T07:10:19;14.00;84.40
19039;DHT22;9652;49.014;12.052;2023-10-31T07:12:46;14.10;84.60
19039;DHT22;9652;49.014;12.052;2023-10-31T07:15:15;14.10;84.50
19039;DHT22;9652;49.014;12.052;2023-10-31T07:17:42;14.10;84.60
19039;DHT22;9652;49.014;12.052;2023-10-31T07:20:09;14.20;84.80
19039;DHT22;9652;49.014;12.052;2023-10-31T07:22:37;14.20;85.00
19039;DHT22;9652;49.014;12.052;2023-10-31T07:25:06;14.30;85.10
19039;DHT22;9652;49.014;12.052;2023-10-31T07:27:33;14.30;85.30
19039;DHT22;9652;49.014;12.052;2023-10-31T07:30:01;14.40;85.40
19039;DHT22;9652;49.014;12.052;2023-10-31T07:32:31;14.50;85.40
19039;DHT22;9652;49.014;12.052;2023-10-31T07:34:58;14.50;85.40
19039;DHT22;9652;49.014;12.052;2023-10-31T07:37:25;14.60;85.40
19039;DHT22;9652;49.014;12.052;2023-10-31T07:39:52;14.70;85.50
19039;DHT22;9652;49.014;12.052;2023-10-31T07:42:19;14.80;85.50
19039;DHT22;9652;49.014;12.052;2023-10-31T07:44:47;14.80;85.30
19039;DHT22;9652;49.014;12.052;2023-10-31T07:47:15;14.90;85.20
19039;DHT22;9652;49.014;12.052;2023-10-31T07:49:44;15.00;84.90
19039;DHT22;9652;49.014;12.052;2023-10-31T07:52:11;15.10;84.70
19039;DHT22;9652;49.014;12.052;2023-10-31T07:54:39;15.10;84.60
19039;DHT22;9652;49.014;12.052;2023-10-31T07:57:06;15.20;84.50
19039;DHT22;9652;49.014;12.052;2023-10-31T07:59:34;15.20;84.30
19039;DHT22;9652;49.014;12.052;2023-10-31T08:02:01;15.30;84.30
19039;DHT22;9652;49.014;12.052;2023-10-31T08:04:29;15.40;84.20
19039;DHT22;9652;49.014;12.052;2023-10-31T08:06:57;15.40;84.00
19039;DHT22;9652;49.014;12.052;2023-10-31T08:09:25;15.50;83.80
19039;DHT22;9652;49.014;12.052;2023-10-31T08:11:52;15.60;83.70
19039;DHT22;9652;49.014;12.052;2023-10-31T08:14:19;15.60;83.20
19039;DHT22;9652;49.014;12.052;2023-10-31T08:16:47;15.60;82.90
19039;DHT22;9652;49.014;12.052;2023-10-31T08:19:14;15.70;83.10
19039;DHT22;9652;49.014;12.052;2023-10-31T08:21:42;15.80;83.10
19039;DHT22;9652;49.014;12.052;2023-10-31T08:24:10;15.80;82.90
19039;DHT22;9652;49.014;12.052;2023-10-31T08:26:39;15.80;82.90
19039;DHT22;9652;49.014;12.052;2023-10-31T08:29:06;15.90;82.50
19039;DHT22;9652;49.014;12.052;2023-10-31T08:31:33;16.00;82.10
19039;DHT22;9652;49.014;12.052;2023-10-31T08:34:00;16.10;81.70
19039;DHT22;9652;49.014;12.052;2023-10-31T08:36:29;16.10;81.20
19039;DHT22;9652;49.014;12.052;2023-10-31T08:38:56;16.20;80.80
19039;DHT22;9652;49.014;12.052;2023-10-31T08:41:24;16.20;81.20
19039;DHT22;9652;49.014;12.052;2023-10-31T08:43:52;16.20;79.90
19039;DHT22;9652;49.014;12.052;2023-10-31T08:46:19;16.30;79.80
19039;DHT22;9652;49.014;12.052;2023-10-31T08:48:47;16.30;79.30
19039;DHT22;9652;49.014;12.052;2023-10-31T08:51:14;16.30;79.20
19039;DHT22;9652;49.014;12.052;2023-10-31T08:53:41;16.30;78.90
19039;DHT22;9652;49.014;12.052;2023-10-31T08:56:08;16.30;78.60
19039;DHT22;9652;49.014;12.052;2023-10-31T08:58:37;16.30;78.60
19039;DHT22;9652;49.014;12.052;2023-10-31T09:01:04;16.30;78.40
19039;DHT22;9652;49.014;12.052;2023-10-31T09:03:31;16.30;78.40
19039;DHT22;9652;49.014;12.052;2023-10-31T09:05:58;16.30;78.30
19039;DHT22;9652;49.014;12.052;2023-10-31T09:08:25;16.30;78.30
19039;DHT22;9652;49.014;12.052;2023-10-31T09:10:52;16.20;78.10
19039;DHT22;9652;49.014;12.052;2023-10-31T09:13:20;16.30;78.10
19039;DHT22;9652;49.014;12.052;2023-10-31T09:15:48;16.40;78.10
19039;DHT22;9652;49.014;12.052;2023-10-31T09:18:15;16.30;77.90
19039;DHT22;9652;49.014;12.052;2023-10-31T09:20:42;16.30;77.40
19039;DHT22;9652;49.014;12.052;2023-10-31T09:23:10;16.30;77.10
19039;DHT22;9652;49.014;12.052;2023-10-31T09:25:37;16.30;76.90
19039;DHT22;9652;49.014;12.052;2023-10-31T09:28:04;16.30;76.80
19039;DHT22;9652;49.014;12.052;2023-10-31T09:30:31;16.30;76.80
19039;DHT22;9652;49.014;12.052;2023-10-31T09:33:00;16.30;77.00
19039;DHT22;9652;49.014;12.052;2023-10-31T09:35:27;16.30;77.10
19039;DHT22;9652;49.014;12.052;2023-10-31T09:37:54;16.30;77.20
19039;DHT22;9652;49.014;12.052;2023-10-31T09:40:22;16.40;77.00
19039;DHT22;9652;49.014;12.052;2023-10-31T09:42:49;16.40;76.40
19039;DHT22;9652;49.014;12.052;2023-10-31T09:45:17;16.40;76.20
19039;DHT22;9652;49.014;12.052;2023-10-31T09:47:44;16.40;75.90
19039;DHT22;9652;49.014;12.052;2023-10-31T09:50:13;16.40;76.10
19039;DHT22;9652;49.014;12.052;2023-10-31T09:52:40;16.40;75.70
19039;DHT22;9652;49.014;12.052;2023-10-31T09:55:08;16.40;75.70
19039;DHT22;9652;49.014;12.052;2023-10-31T09:57:35;16.40;75.50
19039;DHT22;9652;49.014;12.052;2023-10-31T10:00:03;16.40;75.40
19039;DHT22;9652;49.014;12.052;2023-10-31T10:02:35;16.40;75.30
19039;DHT22;9652;49.014;12.052;2023-10-31T10:05:04;16.40;75.20
19039;DHT22;9652;49.014;12.052;2023-10-31T10:07:33;16.40;75.00
19039;DHT22;9652;49.014;12.052;2023-10-31T10:10:01;16.40;74.80
19039;DHT22;9652;49.014;12.052;2023-10-31T10:12:28;16.40;75.20
19039;DHT22;9652;49.014;12.052;2023-10-31T10:14:57;16.50;76.10
19039;DHT22;9652;49.014;12.052;2023-10-31T10:17:25;16.50;75.00
19039;DHT22;9652;49.014;12.052;2023-10-31T10:20:05;16.50;75.00
19039;DHT22;9652;49.014;12.052;2023-10-31T10:22:37;16.60;73.60
19039;DHT22;9652;49.014;12.052;2023-10-31T10:25:06;16.60;74.00
19039;DHT22;9652;49.014;12.052;2023-10-31T10:27:34;16.60;74.40
19039;DHT22;9652;49.014;12.052;2023-10-31T10:30:02;16.50;74.40
19039;DHT22;9652;49.014;12.052;2023-10-31T10:32:30;16.60;73.90
19039;DHT22;9652;49.014;12.052;2023-10-31T10:34:57;16.60;73.60
19039;DHT22;9652;49.014;12.052;2023-10-31T10:37:26;16.60;73.70
19039;DHT22;9652;49.014;12.052;2023-10-31T10:39:56;16.60;73.40
19039;DHT22;9652;49.014;12.052;2023-10-31T10:42:32;16.50;73.00
19039;DHT22;9652;49.014;12.052;2023-10-31T10:45:02;16.50;72.50
19039;DHT22;9652;49.014;12.052;2023-10-31T10:47:31;16.40;73.20
19039;DHT22;9652;49.014;12.052;2023-10-31T10:50:01;16.40;72.60
19039;DHT22;9652;49.014;12.052;2023-10-31T10:52:35;16.30;72.70
19039;DHT22;9652;49.014;12.052;2023-10-31T10:55:11;16.20;72.90
19039;DHT22;9652;49.014;12.052;2023-10-31T10:57:48;16.20;73.10
19039;DHT22;9652;49.014;12.052;2023-10-31T11:00:22;16.20;73.30
19039;DHT22;9652;49.014;12.052;2023-10-31T11:02:51;16.20;73.70
19039;DHT22;9652;49.014;12.052;2023-10-31T11:05:20;16.20;73.80
19039;DHT22;9652;49.014;12.052;2023-10-31T11:07:47;16.20;74.00
19039;DHT22;9652;49.014;12.052;2023-10-31T11:10:21;16.30;74.10
19039;DHT22;9652;49.014;12.052;2023-10-31T11:12:48;16.40;73.80
19039;DHT22;9652;49.014;12.052;2023-10-31T11:15:18;16.30;73.90
19039;DHT22;9652;49.014;12.052;2023-10-31T11:17:46;16.40;73.50
19039;DHT22;9652;49.014;12.052;2023-10-31T11:20:16;16.40;73.20
19039;DHT22;9652;49.014;12.052;2023-10-31T11:22:45;16.40;72.80
19039;DHT22;9652;49.014;12.052;2023-10-31T11:25:17;16.40;72.20
19039;DHT22;9652;49.014;12.052;2023-10-31T11:27:47;16.40;72.00
19039;DHT22;9652;49.014;12.052;2023-10-31T11:30:21;16.20;71.50
19039;DHT22;9652;49.014;12.052;2023-10-31T11:32:58;16.20;71.40
19039;DHT22;9652;49.014;12.052;2023-10-31T11:35:29;16.30;72.00
19039;DHT22;9652;49.014;12.052;2023-10-31T11:38:01;16.10;71.70
19039;DHT22;9652;49.014;12.052;2023-10-31T11:40:29;16.10;71.70
19039;DHT22;9652;49.014;12.052;2023-10-31T11:43:01;16.10;72.10
19039;DHT22;9652;49.014;12.052;2023-10-31T11:45:34;16.00;71.90
19039;DHT22;9652;49.014;12.052;2023-10-31T11:48:03;15.90;72.10
19039;DHT22;9652;49.014;12.052;2023-10-31T11:50:31;15.90;72.50
19039;DHT22;9652;49.014;12.052;2023-10-31T11:53:03;15.90;72.80
19039;DHT22;9652;49.014;12.052;2023-10-31T11:55:33;15.90;72.90
19039;DHT22;9652;49.014;12.052;2023-10-31T11:58:16;15.80;73.30
19039;DHT22;9652;49.014;12.052;2023-10-31T12:00:45;15.80;73.70
19039;DHT22;9652;49.014;12.052;2023-10-31T12:03:15;15.80;74.20
19039;DHT22;9652;49.014;12.052;2023-10-31T12:05:54;15.80;74.10
19039;DHT22;9652;49.014;12.052;2023-10-31T12:08:27;15.80;73.70
19039;DHT22;9652;49.014;12.052;2023-10-31T12:11:06;15.80;73.90
19039;DHT22;9652;49.014;12.052;2023-10-31T12:13:37;15.80;73.40
19039;DHT22;9652;49.014;12.052;2023-10-31T12:16:06;15.90;73.80
19039;DHT22;9652;49.014;12.052;2023-10-31T12:18:36;15.90;73.80
19039;DHT22;9652;49.014;12.052;2023-10-31T12:21:04;15.90;73.50
19039;DHT22;9652;49.014;12.052;2023-10-31T12:23:33;15.90;73.20
19039;DHT22;9652;49.014;12.052;2023-10-31T12:26:00;15.90;73.50
19039;DHT22;9652;49.014;12.052;2023-10-31T12:28:27;15.90;73.60
19039;DHT22;9652;49.014;12.052;2023-10-31T12:30:56;16.00;73.70
19039;DHT22;9652;49.014;12.052;2023-10-31T12:33:26;16.00;73.80
19039;DHT22;9652;49.014;12.052;2023-10-31T12:35:57;16.10;73.90
19039;DHT22;9652;49.014;12.052;2023-10-31T12:38:25;16.10;73.90
19039;DHT22;9652;49.014;12.052;2023-10-31T12:40:53;16.20;74.40
19039;DHT22;9652;49.014;12.052;2023-10-31T12:43:22;16.30;74.50
19039;DHT22;9652;49.014;12.052;2023-10-31T12:45:49;16.40;74.60
19039;DHT22;9652;49.014;12.052;2023-10-31T12:48:23;16.50;74.50
19039;DHT22;9652;49.014;12.052;2023-10-31T12:51:06;16.60;73.70
19039;DHT22;9652;49.014;12.052;2023-10-31T12:53:33;16.70;73.00
19039;DHT22;9652;49.014;12.052;2023-10-31T12:56:00;16.80;73.90
19039;DHT22;9652;49.014;12.052;2023-10-31T12:58:28;16.90;73.80
19039;DHT22;9652;49.014;12.052;2023-10-31T13:00:55;17.00;73.80
19039;DHT22;9652;49.014;12.052;2023-10-31T13:03:24;17.10;73.60
19039;DHT22;9652;49.014;12.052;2023-10-31T13:05:51;17.20;73.20
19039;DHT22;9652;49.014;12.052;2023-10-31T13:08:18;17.30;73.30
19039;DHT22;9652;49.014;12.052;2023-10-31T13:10:45;17.30;72.90
19039;DHT22;9652;49.014;12.052;2023-10-31T13:13:12;17.40;72.60
19039;DHT22;9652;49.014;12.052;2023-10-31T13:15:39;17.40;72.10
19039;DHT22;9652;49.014;12.052;2023-10-31T13:18:07;17.40;71.70
19039;DHT22;9652;49.014;12.052;2023-10-31T13:20:38;17.40;71.50
19039;DHT22;9652;49.014;12.052;2023-10-31T13:23:05;17.30;71.20
19039;DHT22;9652;49.014;12.052;2023-10-31T13:25:32;17.20;71.10
19039;DHT22;9652;49.014;12.052;2023-10-31T13:27:59;17.20;71.00
19039;DHT22;9652;49.014;12.052;2023-10-31T13:30:26;17.20;70.90
19039;DHT22;9652;49.014;12.052;2023-10-31T13:32:53;17.10;71.00
19039;DHT22;9652;49.014;12.052;2023-10-31T13:35:22;17.00;71.20
19039;DHT22;9652;49.014;12.052;2023-10-31T13:37:51;17.00;71.20
19039;DHT22;9652;49.014;12.052;2023-10-31T13:40:18;16.90;71.10
19039;DHT22;9652;49.014;12.052;2023-10-31T13:42:45;16.90;71.50
19039;DHT22;9652;49.014;12.052;2023-10-31T13:45:12;16.80;71.80
19039;DHT22;9652;49.014;12.052;2023-10-31T13:47:39;16.80;72.00
19039;DHT22;9652;49.014;12.052;2023-10-31T13:50:07;16.80;72.20
19039;DHT22;9652;49.014;12.052;2023-10-31T13:52:34;16.90;72.50
19039;DHT22;9652;49.014;12.052;2023-10-31T13:55:05;16.90;72.30
19039;DHT22;9652;49.014;12.052;2023-10-31T13:57:32;16.90;72.20
19039;DHT22;9652;49.014;12.052;2023-10-31T13:59:59;17.00;72.20
19039;DHT22;9652;49.014;12.052;2023-10-31T14:02:26;17.00;72.10
19039;DHT22;9652;49.014;12.052;2023-10-31T14:04:54;17.10;72.20
19039;DHT22;9652;49.014;12.052;2023-10-31T14:07:22;17.10;72.00
19039;DHT22;9652;49.014;12.052;2023-10-31T14:09:49;17.20;71.70
19039;DHT22;9652;49.014;12.052;2023-10-31T14:12:18;17.20;71.20
19039;DHT22;9652;49.014;12.052;2023-10-31T14:14:45;17.30;70.90
19039;DHT22;9652;49.014;12.052;2023-10-31T14:17:13;17.30;70.90
19039;DHT22;9652;49.014;12.052;2023-10-31T14:19:42;17.30;70.60
19039;DHT22;9652;49.014;12.052;2023-10-31T14:22:11;17.30;70.50
19039;DHT22;9652;49.014;12.052;2023-10-31T14:24:38;17.20;70.20
19039;DHT22;9652;49.014;12.052;2023-10-31T14:27:06;17.20;70.20
19039;DHT22;9652;49.014;12.052;2023-10-31T14:29:35;17.20;70.10
19039;DHT22;9652;49.014;12.052;2023-10-31T14:32:06;17.20;70.00
19039;DHT22;9652;49.014;12.052;2023-10-31T14:34:33;17.10;69.50
19039;DHT22;9652;49.014;12.052;2023-10-31T14:37:01;17.10;69.90
19039;DHT22;9652;49.014;12.052;2023-10-31T14:39:28;17.10;69.80
19039;DHT22;9652;49.014;12.052;2023-10-31T14:41:55;17.00;69.70
19039;DHT22;9652;49.014;12.052;2023-10-31T14:44:22;17.00;70.00
19039;DHT22;9652;49.014;12.052;2023-10-31T14:46:51;17.00;70.20
19039;DHT22;9652;49.014;12.052;2023-10-31T14:49:19;17.00;70.10
19039;DHT22;9652;49.014;12.052;2023-10-31T14:51:46;17.00;70.10
19039;DHT22;9652;49.014;12.052;2023-10-31T14:54:13;17.00;70.20
19039;DHT22;9652;49.014;12.052;2023-10-31T14:56:40;17.00;70.10
19039;DHT22;9652;49.014;12.052;2023-10-31T14:59:07;16.90;69.90
19039;DHT22;9652;49.014;12.052;2023-10-31T15:01:34;17.00;69.90
19039;DHT22;9652;49.014;12.052;2023-10-31T15:04:03;16.90;69.60
19039;DHT22;9652;49.014;12.052;2023-10-31T15:06:31;16.80;69.30
19039;DHT22;9652;49.014;12.052;2023-10-31T15:08:58;16.80;69.40
19039;DHT22;9652;49.014;12.052;2023-10-31T15:11:25;16.80;69.40
19039;DHT22;9652;49.014;12.052;2023-10-31T15:13:52;16.80;69.60
19039;DHT22;9652;49.014;12.052;2023-10-31T15:16:19;16.70;69.80
19039;DHT22;9652;49.014;12.052;2023-10-31T15:18:46;16.70;70.00
19039;DHT22;9652;49.014;12.052;2023-10-31T15:21:14;16.60;70.10
19039;DHT22;9652;49.014;12.052;2023-10-31T15:23:42;16.60;69.70
19039;DHT22;9652;49.014;12.052;2023-10-31T15:26:09;16.60;69.80
19039;DHT22;9652;49.014;12.052;2023-10-31T15:28:38;16.50;69.70
19039;DHT22;9652;49.014;12.052;2023-10-31T15:31:07;16.50;69.70
19039;DHT22;9652;49.014;12.052;2023-10-31T15:33:34;16.50;69.80
19039;DHT22;9652;49.014;12.052;2023-10-31T15:36:01;16.40;69.70